Monarch, Utah
Current Conditions -  °F | °C
As of 12:53 AM on Sunday 26 Oct 2014 (Local Time) from KVEL Reporting Station
Clear Clear  
Wind Chill: 47°   Ceiling: Unl
Heat Index: 47°   Visibility: 10mi
Dew Point: 35°   Wind: 3mph
Humidity: 63%   Direction: 340°NNW
Pressure: 29.99"   Gusts: NA
Location:  40.5914°N, 110.379°W
Report Text: KVEL 260653Z AUTO 34003KT 10SM CLR 08/02 A2999 RMK AO2 SLP121 T00830017 402110039
Loading
Personal Weather Stations






























Interactive Weather Map
Tropical Storm Tracking
New forecast layout! Learn more

10-Day Weather Forecast

Advertisements
Track Severe Weather on mobile